GW4552 Weather Reports


Display with metric or nautical units.
time (UTC)temp
F
wind
direction
speed
MPH
gust
MPH
rain 1hr
in
rain 24hr
in
rain mn
in
humidity
%
barometer
mb
20260510033500 53 0 2.0 3.0 0.00 0.00 0.53 96 1010.8
20260510033001 53 32 1.0 2.0 0.00 0.00 0.53 96 1010.7
20260510032501 53 67 1.0 2.0 0.00 0.00 0.53 96 1010.5
20260510032000 53 110 1.0 3.0 0.00 0.00 0.53 96 1010.6
20260510031506 53 150 1.0 2.0 0.00 0.00 0.53 96 1010.7
20260510031000 53 142 1.0 2.0 0.00 0.00 0.53 96 1010.6
20260510030501 53 14 0.0 2.0 0.00 0.00 0.53 96 1010.6
20260510030005 53 135 1.0 2.0 0.00 0.00 0.53 96 1010.7
20260510025501 53 0 0.0 2.0 0.00 0.00 0.53 96 1010.8
20260510025001 53 343 1.0 3.0 0.00 0.00 0.53 96 1011.1
20260510024501 53 100 1.0 3.0 0.00 0.00 0.53 95 1011.0
20260510024001 53 127 3.0 3.0 0.00 0.00 0.51 95 1011.5
20260510023500 53 120 0.0 1.0 0.00 0.00 0.49 95 1011.7
20260510023001 53 57 0.0 2.0 0.00 0.00 0.46 95 1011.7
20260510022500 53 40 2.0 2.0 0.00 0.00 0.44 95 1011.8
20260510022001 53 51 1.0 2.0 0.00 0.00 0.42 94 1011.9
20260510021500 53 285 0.0 3.0 0.00 0.00 0.41 94 1011.8
20260510021001 53 27 2.0 5.0 0.00 0.00 0.40 94 1011.8
20260510020501 53 36 2.0 6.0 0.00 0.00 0.37 93 1011.8
20260510020001 53 17 5.0 6.0 0.00 0.00 0.35 93 1011.8
20260510015501 53 8 4.0 8.0 0.00 0.00 0.33 92 1011.6
20260510015000 54 4 8.0 8.0 0.00 0.00 0.31 91 1011.7
20260510014500 54 294 3.0 11.0 0.00 0.00 0.23 89 1011.3
20260510014001 56 355 13.0 19.0 0.00 0.00 0.13 81 1011.1
20260510013500 60 10 3.0 16.0 0.00 0.00 0.12 70 1010.7
20260510013006 62 346 4.0 5.0 0.00 0.00 0.12 62 1009.6
20260510012500 62 256 2.0 3.0 0.00 0.00 0.12 63 1009.1
20260510012001 62 220 1.0 7.0 0.00 0.00 0.12 63 1008.7
20260510011500 62 213 1.0 5.0 0.00 0.00 0.12 62 1008.6
20260510011001 62 170 2.0 6.0 0.00 0.00 0.12 61 1008.8
20260510010501 62 182 2.0 11.0 0.00 0.00 0.12 61 1008.6
20260510010000 62 289 0.0 6.0 0.00 0.00 0.12 62 1008.6
20260510005501 62 233 4.0 4.0 0.00 0.00 0.12 62 1008.7
20260510005000 62 196 2.0 13.0 0.00 0.00 0.12 62 1008.7
20260510004501 62 193 0.0 9.0 0.00 0.00 0.12 62 1008.6
20260510004001 62 211 5.0 5.0 0.00 0.00 0.12 63 1008.6
20260510003501 62 244 3.0 7.0 0.00 0.00 0.12 62 1008.7
20260510003001 62 155 2.0 8.0 0.00 0.00 0.12 61 1008.7
20260510002500 62 212 0.0 4.0 0.00 0.00 0.12 63 1008.5
20260510002001 63 101 1.0 11.0 0.00 0.00 0.12 61 1008.4
20260510001505 63 240 3.0 7.0 0.00 0.00 0.12 61 1008.3
20260510001001 63 238 5.0 8.0 0.00 0.00 0.12 62 1008.3
20260510000501 63 211 2.0 5.0 0.00 0.00 0.12 62 1008.2
20260510000000 64 199 2.0 10.0 0.00 0.00 0.12 60 1008.4
20260509235501 64 211 3.0 6.0 0.00 0.00 0.12 59 1008.3
20260509235005 64 127 6.0 8.0 0.00 0.00 0.12 59 1008.0
20260509234506 64 193 0.0 3.0 0.00 0.00 0.12 61 1007.9
20260509234001 64 214 3.0 13.0 0.00 0.00 0.12 59 1007.9
20260509233500 64 227 10.0 12.0 0.00 0.00 0.12 58 1008.1
20260509233001 66 221 4.0 14.0 0.00 0.00 0.12 57 1008.1
20260509232501 66 234 7.0 12.0 0.00 0.00 0.12 56 1008.1
20260509232001 66 165 2.0 6.0 0.00 0.00 0.12 57 1008.0
20260509231500 66 204 3.0 14.0 0.00 0.00 0.12 56 1008.0
20260509231000 66 195 2.0 16.0 0.00 0.00 0.12 58 1007.8
20260509230501 66 221 3.0 5.0 0.00 0.00 0.12 55 1007.9
20260509230001 67 167 2.0 15.0 0.00 0.00 0.12 55 1008.1
20260509225500 66 209 3.0 10.0 0.00 0.00 0.12 55 1007.9
20260509225001 67 261 3.0 11.0 0.00 0.00 0.12 54 1007.6
20260509224500 67 227 7.0 12.0 0.00 0.00 0.12 54 1007.5
20260509224006 67 227 5.0 11.0 0.00 0.00 0.12 55 1007.4
20260509223501 67 230 5.0 8.0 0.00 0.00 0.12 56 1007.4
20260509223001 67 243 8.0 11.0 0.00 0.00 0.12 56 1007.7
20260509222500 67 214 10.0 20.0 0.00 0.00 0.12 55 1007.7
20260509222001 67 166 5.0 18.0 0.00 0.00 0.12 55 1007.7
20260509221501 67 177 2.0 5.0 0.00 0.00 0.12 55 1007.6
20260509221001 66 228 7.0 15.0 0.00 0.00 0.12 54 1007.7
20260509220506 67 233 9.0 19.0 0.00 0.00 0.12 55 1007.7
20260509220000 67 237 6.0 10.0 0.00 0.00 0.12 55 1007.9
20260509215500 67 235 4.0 9.0 0.00 0.00 0.12 57 1007.9
20260509215001 67 145 4.0 10.0 0.00 0.00 0.12 56 1007.9
20260509214510 67 195 4.0 10.0 0.00 0.00 0.12 54 1007.9
20260509214001 67 185 2.0 11.0 0.00 0.00 0.12 54 1008.2
20260509213506 67 261 7.0 12.0 0.00 0.00 0.12 54 1008.2
20260509213006 65 204 6.0 11.0 0.00 0.00 0.12 56 1008.0
20260509212501 66 224 5.0 14.0 0.00 0.00 0.12 56 1007.9
20260509212000 66 211 2.0 10.0 0.00 0.00 0.12 58 1007.9
20260509211501 67 218 4.0 5.0 0.00 0.00 0.12 61 1008.1
20260509211000 65 237 9.0 14.0 0.00 0.00 0.12 59 1008.2
20260509210501 66 236 4.0 6.0 0.00 0.00 0.12 57 1008.4
20260509210000 65 242 5.0 13.0 0.00 0.00 0.12 58 1008.4
20260509205501 66 266 6.0 12.0 0.00 0.00 0.12 57 1008.4
20260509205000 67 172 3.0 13.0 0.00 0.00 0.12 56 1008.4
20260509204506 65 207 4.0 13.0 0.00 0.00 0.12 57 1008.4
20260509204001 66 212 5.0 8.0 0.00 0.00 0.12 58 1008.5
20260509203500 66 229 8.0 9.0 0.00 0.00 0.12 61 1008.4
20260509203000 65 253 5.0 12.0 0.00 0.00 0.12 59 1008.5
20260509202501 65 176 6.0 19.0 0.00 0.00 0.12 59 1008.6
20260509202000 64 297 9.0 15.0 0.00 0.00 0.12 60 1008.7
20260509201511 66 251 11.0 14.0 0.00 0.00 0.12 59 1008.8
20260509201001 64 237 6.0 11.0 0.00 0.00 0.12 60 1008.9
20260509200510 65 273 9.0 12.0 0.00 0.00 0.12 59 1008.9
20260509200001 64 224 10.0 17.0 0.00 0.00 0.12 60 1009.0
20260509195501 64 254 7.0 10.0 0.00 0.00 0.12 62 1009.0
20260509195001 64 222 13.0 14.0 0.00 0.00 0.12 61 1009.1
20260509194501 65 166 2.0 6.0 0.00 0.00 0.12 63 1009.1
20260509194001 63 272 5.0 13.0 0.00 0.00 0.12 66 1009.1
20260509193500 64 139 6.0 10.0 0.00 0.00 0.12 67 1009.0
20260509193001 63 227 5.0 13.0 0.00 0.00 0.12 67 1009.2
20260509192500 62 235 6.0 15.0 0.00 0.00 0.12 67 1009.3
20260509192001 62 218 9.0 19.0 0.00 0.00 0.12 65 1009.2
20260509191505 64 223 4.0 8.0 0.00 0.00 0.12 66 1009.3
20260509191001 63 206 3.0 15.0 0.00 0.00 0.12 66 1009.4
20260509190501 63 194 4.0 13.0 0.00 0.00 0.12 67 1009.4
20260509190001 64 216 4.0 8.0 0.00 0.00 0.12 71 1009.5
20260509185501 63 204 2.0 11.0 0.00 0.00 0.12 70 1009.7
20260509185000 62 195 4.0 13.0 0.00 0.00 0.12 67 1009.8
20260509184501 63 192 8.0 12.0 0.00 0.00 0.12 69 1009.8
20260509184006 62 213 3.0 8.0 0.00 0.00 0.12 71 1009.7
20260509183501 62 214 7.0 14.0 0.00 0.00 0.12 68 1009.5
20260509183001 61 217 8.0 11.0 0.00 0.00 0.12 72 1009.8
20260509182505 61 204 7.0 13.0 0.00 0.00 0.12 68 1009.8
20260509182001 62 256 4.0 13.0 0.00 0.00 0.12 69 1009.7
20260509181500 63 183 2.0 12.0 0.00 0.00 0.12 71 1009.8
20260509181001 62 238 8.0 15.0 0.00 0.00 0.12 69 1009.8
20260509180500 61 246 6.0 15.0 0.00 0.00 0.12 72 1009.8
20260509180001 60 233 6.0 11.0 0.00 0.00 0.12 74 1009.9
20260509175501 60 188 4.0 11.0 0.00 0.00 0.12 73 1009.8
20260509175001 60 253 3.0 4.0 0.00 0.00 0.12 77 1009.7
20260509174500 59 179 3.0 6.0 0.00 0.00 0.12 77 1009.7
20260509174001 59 210 3.0 9.0 0.00 0.00 0.12 77 1009.7
20260509173506 59 275 3.0 8.0 0.00 0.00 0.12 77 1009.8
20260509173006 60 226 5.0 5.0 0.00 0.00 0.12 77 1009.6
20260509172500 60 220 3.0 10.0 0.00 0.00 0.12 77 1009.8
20260509172006 59 233 5.0 9.0 0.00 0.00 0.12 77 1009.8
20260509171506 59 237 7.0 13.0 0.00 0.00 0.12 79 1009.8
20260509171010 58 252 5.0 6.0 0.00 0.00 0.12 80 1009.8
20260509170506 58 275 5.0 6.0 0.00 0.00 0.12 80 1009.8
20260509170001 58 244 3.0 6.0 0.00 0.00 0.12 80 1009.8
20260509165500 57 205 5.0 10.0 0.00 0.00 0.12 82 1009.5
20260509165001 57 310 4.0 10.0 0.00 0.00 0.12 82 1009.6
20260509164501 57 202 3.0 6.0 0.00 0.00 0.12 84 1009.7
20260509164006 57 224 3.0 11.0 0.00 0.00 0.12 84 1009.8
20260509163501 56 271 5.0 6.0 0.00 0.00 0.12 85 1009.7
20260509163000 57 156 1.0 7.0 0.00 0.00 0.12 86 1009.8
20260509162501 56 173 3.0 13.0 0.00 0.00 0.12 86 1009.7
20260509162001 56 178 2.0 7.0 0.00 0.00 0.12 86 1009.7
20260509161501 56 245 3.0 6.0 0.00 0.00 0.12 90 1009.6
20260509161001 56 189 2.0 4.0 0.00 0.00 0.12 91 1009.7
20260509160501 54 243 2.0 7.0 0.00 0.00 0.12 93 1009.8
20260509160011 54 247 2.0 4.0 0.00 0.00 0.12 94 1009.6
20260509155500 53 217 2.0 4.0 0.00 0.00 0.12 94 1009.7
20260509155001 53 249 3.0 6.0 0.00 0.00 0.12 94 1009.7
20260509154515 53 136 2.0 5.0 0.00 0.00 0.12 95 1009.7
20260509154000 53 206 1.0 2.0 0.00 0.00 0.12 95 1009.7
20260509153501 53 192 2.0 11.0 0.00 0.00 0.12 95 1009.7
20260509153000 53 207 6.0 11.0 0.00 0.00 0.12 95 1009.6
20260509152500 53 247 6.0 11.0 0.00 0.00 0.11 96 1009.5
20260509152001 53 196 1.0 6.0 0.00 0.00 0.11 96 1009.6
20260509151501 52 216 2.0 4.0 0.00 0.00 0.11 96 1009.7
20260509151001 52 214 2.0 8.0 0.00 0.00 0.11 96 1009.7
20260509150501 52 231 4.0 6.0 0.00 0.00 0.11 96 1009.8
20260509150001 52 221 3.0 5.0 0.00 0.00 0.11 96 1009.9
20260509145500 52 166 3.0 4.0 0.00 0.00 0.10 96 1009.8
20260509145001 52 214 2.0 6.0 0.00 0.00 0.10 96 1009.8
20260509144500 52 228 8.0 8.0 0.00 0.00 0.09 96 1009.6
20260509144001 52 197 1.0 6.0 0.00 0.00 0.08 96 1009.8
20260509143500 52 139 1.0 6.0 0.00 0.00 0.08 96 1009.6
20260509143000 52 223 1.0 7.0 0.00 0.00 0.08 96 1009.9
20260509142511 52 186 3.0 5.0 0.00 0.00 0.07 96 1009.7
20260509142001 52 215 4.0 12.0 0.00 0.00 0.07 96 1009.7
20260509141500 51 214 2.0 11.0 0.00 0.00 0.07 96 1009.8
20260509141000 52 193 5.0 6.0 0.00 0.00 0.07 96 1009.7
20260509140506 52 201 2.0 3.0 0.00 0.00 0.07 97 1009.9
20260509140000 51 219 7.0 9.0 0.00 0.00 0.07 97 1009.8
20260509135500 51 187 3.0 10.0 0.00 0.00 0.07 97 1009.8
20260509135006 51 216 1.0 2.0 0.00 0.00 0.07 97 1010.0
20260509134506 51 213 3.0 10.0 0.00 0.00 0.07 97 1010.0
20260509134001 51 169 1.0 7.0 0.00 0.00 0.07 97 1010.0
20260509133501 51 204 3.0 4.0 0.00 0.00 0.07 97 1009.9
20260509133006 51 222 7.0 7.0 0.00 0.00 0.07 97 1010.2
20260509132500 51 166 3.0 4.0 0.00 0.00 0.07 97 1010.0
20260509132001 51 174 1.0 6.0 0.00 0.00 0.06 97 1010.1
20260509131500 51 209 3.0 9.0 0.00 0.00 0.06 97 1010.0
20260509131001 51 221 5.0 7.0 0.00 0.00 0.06 96 1010.0
20260509130505 51 169 1.0 7.0 0.00 0.00 0.05 96 1010.0
20260509130001 50 206 3.0 10.0 0.00 0.00 0.05 96 1009.9
20260509125500 51 214 2.0 3.0 0.00 0.00 0.05 96 1010.1
20260509125001 51 195 4.0 8.0 0.00 0.00 0.04 96 1010.0
20260509124500 51 214 3.0 6.0 0.00 0.00 0.03 96 1009.9
20260509124001 51 182 1.0 4.0 0.00 0.00 0.03 96 1010.0
20260509123500 51 138 1.0 4.0 0.00 0.00 0.02 96 1010.2
20260509123000 51 126 1.0 6.0 0.00 0.00 0.02 96 1010.0
20260509122501 51 245 2.0 6.0 0.00 0.00 0.02 96 1009.8
20260509122000 50 190 2.0 7.0 0.00 0.00 0.02 96 1010.1
20260509121501 50 209 2.0 5.0 0.00 0.00 0.02 96 1010.1
20260509121005 50 150 0.0 2.0 0.00 0.00 0.02 96 1010.1
20260509120501 50 179 1.0 2.0 0.00 0.00 0.02 96 1010.0
20260509120000 50 152 2.0 5.0 0.00 0.00 0.02 96 1010.1
20260509115500 50 198 0.0 2.0 0.00 0.00 0.02 96 1009.9
20260509115006 50 154 2.0 4.0 0.00 0.00 0.02 96 1010.2
20260509114505 50 166 1.0 4.0 0.00 0.00 0.02 96 1010.0
20260509114001 50 210 2.0 2.0 0.00 0.00 0.02 96 1010.2
20260509113500 50 170 1.0 3.0 0.00 0.00 0.02 96 1010.2
20260509113005 50 173 2.0 5.0 0.00 0.00 0.02 96 1010.1
20260509112501 50 183 2.0 2.0 0.00 0.00 0.02 96 1009.9
20260509112005 50 224 0.0 2.0 0.00 0.00 0.01 97 1009.9
20260509111501 49 260 1.0 2.0 0.00 0.00 0.01 97 1010.0
20260509111010 49 141 1.0 3.0 0.00 0.00 0.01 97 1010.0
20260509110500 49 192 1.0 1.0 0.00 0.00 0.01 97 1009.7
20260509110001 49 147 2.0 3.0 0.00 0.00 0.01 97 1009.8
20260509105506 49 127 2.0 2.0 0.00 0.00 0.01 97 1009.7
20260509105001 49 122 2.0 2.0 0.00 0.00 0.01 97 1009.8
20260509104506 48 126 0.0 2.0 0.00 0.00 0.01 97 1009.8
20260509104005 48 103 2.0 2.0 0.00 0.00 0.01 97 1009.8
20260509103501 48 127 1.0 2.0 0.00 0.00 0.01 97 1009.8
20260509103000 48 144 0.0 2.0 0.00 0.00 0.01 97 1009.7
20260509102501 48 106 1.0 2.0 0.00 0.00 0.01 97 1009.7
20260509102000 48 125 0.0 2.0 0.00 0.00 0.01 97 1009.7
20260509101501 48 102 2.0 2.0 0.00 0.00 0.01 97 1009.8
20260509101000 48 115 1.0 2.0 0.00 0.00 0.01 97 1009.8
20260509100501 48 130 2.0 3.0 0.00 0.00 0.01 97 1009.8
20260509100000 48 145 1.0 2.0 0.00 0.00 0.01 97 1009.9
20260509095501 48 144 2.0 2.0 0.00 0.00 0.01 97 1010.0
20260509095005 48 112 0.0 3.0 0.00 0.00 0.01 97 1010.0
20260509094501 48 224 2.0 2.0 0.00 0.00 0.01 97 1010.1
20260509094000 48 138 2.0 2.0 0.00 0.00 0.01 97 1010.0
20260509093501 48 108 2.0 2.0 0.00 0.00 0.01 97 1010.0
20260509093001 48 73 1.0 4.0 0.00 0.00 0.01 97 1010.1
20260509092500 48 119 1.0 2.0 0.00 0.00 0.01 97 1010.1
20260509092001 48 89 0.0 2.0 0.00 0.00 0.01 97 1010.1
20260509091500 48 83 0.0 2.0 0.00 0.00 0.01 97 1010.4
20260509091006 48 17 0.0 2.0 0.00 0.00 0.01 97 1010.4
20260509090500 48 134 0.0 2.0 0.00 0.00 0.01 97 1010.6
20260509090001 48 65 0.0 2.0 0.00 0.00 0.01 97 1010.3
20260509085501 48 63 0.0 2.0 0.00 0.00 0.01 97 1010.6
20260509085000 48 60 0.0 2.0 0.00 0.00 0.01 97 1010.6
20260509084501 48 98 0.0 2.0 0.00 0.00 0.01 97 1010.5
20260509084000 48 72 0.0 1.0 0.00 0.00 0.01 97 1010.6
20260509083501 48 135 0.0 2.0 0.00 0.00 0.01 97 1010.4
20260509083000 48 66 0.0 1.0 0.00 0.00 0.01 96 1010.6
20260509082500 48 9 1.0 2.0 0.00 0.00 0.01 96 1010.5
20260509082001 48 66 1.0 2.0 0.00 0.00 0.01 96 1010.4
20260509081500 48 349 1.0 2.0 0.00 0.00 0.01 96 1010.6
20260509081001 48 72 0.0 1.0 0.00 0.00 0.01 96 1010.5
20260509080501 48 211 0.0 1.0 0.00 0.00 0.01 96 1010.7
20260509080006 48 125 0.0 0.0 0.00 0.00 0.01 96 1010.5
20260509075500 48 116 0.0 2.0 0.00 0.00 0.01 96 1010.5
20260509075001 48 325 0.0 2.0 0.00 0.00 0.00 96 1010.5
20260509074506 48 52 2.0 3.0 0.00 0.00 0.00 96 1010.5
20260509074001 48 98 2.0 2.0 0.00 0.00 0.00 96 1010.6
20260509073500 48 117 2.0 2.0 0.00 0.00 0.00 96 1010.5
20260509073006 48 112 1.0 3.0 0.00 0.00 0.00 96 1010.5
20260509072501 48 105 2.0 4.0 0.00 0.00 0.00 96 1010.4
20260509072000 48 116 3.0 3.0 0.00 0.00 0.00 96 1010.5
20260509071501 48 141 3.0 4.0 0.00 0.00 0.00 96 1010.4
20260509071000 48 114 3.0 4.0 0.00 0.00 0.00 96 1010.5
20260509070506 48 132 2.0 4.0 0.00 0.00 0.00 96 1010.6
20260509070000 48 136 2.0 4.0 0.00 0.00 0.00 96 1010.6
20260509065506 48 147 2.0 4.0 0.00 0.00 0.00 96 1010.6
20260509065000 48 110 1.0 3.0 0.00 0.00 0.00 96 1010.6
20260509064501 48 131 2.0 3.0 0.00 0.00 0.00 96 1010.5
20260509064006 48 180 0.0 2.0 0.00 0.00 0.00 96 1010.6
20260509063505 48 349 2.0 3.0 0.00 0.00 0.00 96 1010.6
20260509063006 48 245 0.0 2.0 0.00 0.00 0.00 96 1010.4
20260509062500 48 103 1.0 2.0 0.00 0.00 0.00 96 1010.9
20260509062001 48 127 0.0 2.0 0.00 0.00 0.00 96 1011.0
20260509061501 48 322 0.0 2.0 0.00 0.00 0.00 96 1010.9
20260509061001 48 60 0.0 2.0 0.00 0.00 0.00 96 1011.0
20260509060501 48 49 0.0 2.0 0.00 0.00 0.00 96 1010.9
20260509060001 48 146 1.0 1.0 0.00 0.00 0.00 96 1011.0
20260509055505 48 33 1.0 3.0 0.00 0.00 0.00 96 1011.3
20260509055001 48 344 0.0 3.0 0.00 0.00 0.00 96 1011.2
20260509054500 48 352 1.0 2.0 0.00 0.00 0.00 96 1011.3
20260509054001 48 240 0.0 1.0 0.00 0.00 0.00 96 1011.4
20260509053501 48 319 0.0 2.0 0.00 0.00 0.00 96 1011.5
20260509053000 48 155 0.0 4.0 0.00 0.00 0.00 96 1011.4
20260509052501 48 199 0.0 2.0 0.00 0.00 0.00 96 1011.5
20260509052000 48 359 0.0 2.0 0.00 0.00 0.00 96 1011.5
20260509051501 48 138 0.0 2.0 0.00 0.00 0.00 96 1011.5
20260509051000 48 102 0.0 1.0 0.00 0.00 0.00 96 1011.5
20260509050501 48 75 1.0 2.0 0.00 0.00 0.00 96 1011.6
20260509050005 48 18 0.0 3.0 0.00 0.00 0.00 96 1011.6
20260509045501 48 137 0.0 3.0 0.00 0.00 0.00 96 1011.7
20260509045000 48 114 2.0 2.0 0.00 0.00 0.00 96 1011.6
20260509044506 48 359 2.0 3.0 0.00 0.00 0.00 96 1011.6
20260509044001 48 72 0.0 2.0 0.00 0.00 0.00 96 1011.8
20260509043501 48 92 1.0 3.0 0.00 0.00 0.00 96 1011.8
20260509043001 48 24 0.0 4.0 0.00 0.00 0.00 96 1011.9
20260509042500 48 89 0.0 2.0 0.00 0.00 0.00 96 1012.1
20260509042001 48 199 0.0 2.0 0.00 0.00 0.00 96 1012.1
20260509041500 48 106 0.0 2.0 0.00 0.00 0.00 96 1012.2
20260509041001 48 14 2.0 2.0 0.00 0.00 0.00 96 1012.2
20260509040500 48 49 2.0 2.0 0.00 0.00 0.00 96 1012.4
20260509040001 48 352 2.0 2.0 0.00 0.00 0.11 96 1012.5
20260509035500 48 26 1.0 2.0 0.00 0.00 0.11 96 1012.5
20260509035006 48 122 0.0 2.0 0.00 0.00 0.11 96 1012.4
20260509034501 48 102 1.0 2.0 0.00 0.00 0.10 96 1012.7
20260509034006 48 81 0.0 1.0 0.00 0.00 0.10 96 1012.8